Leadville, CO

10:38 AM MST on December 26, 2014 (GMT -0700)
Aspen-Pitkin County / Sardy Field | Change Station
CLOSE
Current Station
Airport
Location: Aspen,
Elevation: 7822 ft
Nearby Weather Stations
Active Advisory: Winter Weather Advisory

Elev 7822 ft 39.23 °N, 106.87 °W | Updated 45 minutes ago

Snow
Snow
19 °F
Feels Like 12 °F
N
5
Wind Variable Wind from NNW

Today
High -- | Low -- °F
--% Chance of Precip.
Yesterday
High -- | Low -- °F
Precip. -- in
7:23 AM 4:47 PM
Waxing Crescent, 27% visible
Pressure 29.73 in
Visibility 6.0 miles
Clouds Scattered Clouds 1700 ft
Mostly Cloudy 3200 ft
Windchill 12 °F
Dew Point 15 °F
Humidity 85%
Rainfall 0.09 in
Snow Depth Not available.
UV 1 out of 12
Pollen .10 out of 12
Air Quality Not available.
Flu Activity Not available.
METAR KASE 261653Z 33004KT 6SM BR SCT017 BKN032 M07/M09 A2970 RMK AO2 SNE41 SLP068 P0000 T10721094

More Conditions Fewer Conditions

Pressure 29.73 in
Visibility 6.0 miles
Clouds Scattered Clouds 1700 ft
Mostly Cloudy 3200 ft
Windchill 12 °F
Dew Point 15 °F
Humidity 85%
Rainfall 0.09 in
Snow Depth Not available.
UV 1 out of 12
Pollen .10 out of 12
Air Quality Not available.
Flu Activity Not available.
METAR KASE 261653Z 33004KT 6SM BR SCT017 BKN032 M07/M09 A2970 RMK AO2 SNE41 SLP068 P0000 T10721094

More Conditions Fewer Conditions

10-Day Weather Forecast

Almanac

Astronomy

Dec. 26, 2014 Rise Set
Actual Time
Civil Twilight
Nautical Twilight
Astronomical Twilight
Moon
Length of Visible Light
Length of Day
Tomorrow will be .
, % of the Moon is Illuminated

Today's Extremes

State Highs State Lows

Community

WunderPhotos

Upload Photos

1,780,646 photos uploaded!

WunderBlogs® & News

Nearby

Air Quality

  Air Quality AQ Index Pollutant
Not available.

Snow Depth

Station Depth Elevation

Earthquake Activity

City Distance Mag. Time & Date
Minimum magnitude displayed is 2.5.

Coastal Water Temperatures

Place Temperature

Nearby Weather Stations